Elmira Corning Regional Airport
KELM : now visible

Airfield :











YOU CAN JOIN US ON...

 
LOGIN :

Register | Disclaimer

   EN    FR    IT 

 









Legend :    VFR   Marginal VFR   IFR   Intensive IFR   Very Intensive IFR
Visi :
Ceiling :
>= 8 km
>= 3000ft
5 to 8 km
1000 to 3000 ft
1500m to 5 km
500 to 1000 ft
800 to 1500m
200 to 500 ft
< 800m
< 200 ft
Symbols :   Thunderstorms  Fog  Heavy snow  Heavy precipitations  Wind > 20 kt







- Airport Elevation : 954 ft
- IATA code : ELM


KELM - Elmira Corning Regional

CURRENT METAR :
  • 200930Z AUTO 00000KT 1/4SM R24/1600V2200FT FG VV002 08/08 A3026 RMK AO2 T00780078

EXPIRED METARs :
  • 200916Z AUTO 00000KT 1/4SM R24/1400V1600FT FG VV001 08/08 A3026 RMK AO2 T00780078
  • 200853Z AUTO 00000KT 1/4SM R24/1600V3500FT FG VV002 08/08 A3025 RMK AO2 SLP244 T00780078 55003
  • 200822Z AUTO 00000KT 1/2SM R24/3500VP6000FT FG VV002 07/07 A3025 RMK AO2 T00670067
  • 200811Z AUTO 00000KT 1/4SM R24/4000VP6000FT FG VV002 06/06 A3025 RMK AO2 T00610061
  • 200753Z AUTO 00000KT 1/2SM R24/P6000FT FG OVC002 05/05 A3025 RMK AO2 SLP245 T00500050
  • 200739Z AUTO 00000KT 1/4SM R24/P6000FT FG VV002 06/06 A3025 RMK AO2 T00610061
  • 200733Z AUTO 00000KT 1 1/4SM BR BKN002 06/06 A3025 RMK AO2 VIS 1/2V4 T00610056
  • 200653Z AUTO 00000KT 10SM FEW003 07/06 A3026 RMK AO2 SLP247 T00670061

TAF KELM
Valid from the 20 at 09:00 until the 21 at 06:00 UTC


200835Z 2009/2106 00000KT 2SM BR FEW250
TEMPO 2009/2012 1/2SM FG VV002
FM201330 00000KT P6SM FEW250
No reported NOTAMs for that airfield.



MET'MAP, your aeronautical weather chart ! - Copyright ORBIFLY December 2007 - Disclaimer

ORBIFLY MET'MAP TEAM :

Programming & Development : Alexandra Zaïnal
Concept & Development : Baudouin d'Aumeries
Co-Development & Prog : Marc-Olivier Méhu
Technical & hardware support : Manuel Goepfert

Contact : metmap@orbifly.com




SOURCES & CREDITS :

   NOAA       Earth
Advisory